Time;durP1;ratioP1;P1;durP2;ratioP2;P2;SDS_P1;SDS_P2;PMS_P1;PMS_P2;Temp;Humidity;BMP_temperature;BMP_pressure;BME280_temperature;BME280_humidity;BME280_pressure;Samples;Min_cycle;Max_cycle;Signal;HPM_P1;HPM_P2
2022/05/31 00:01:43;;;;;;;7.85;3.17;;;;;;;11.32;95.33;101030.28;5071638;28;20410;-74
2022/05/31 00:04:09;;;;;;;10.13;4.00;;;;;;;11.24;95.30;101025.94;5077708;28;20497;-74
2022/05/31 00:06:36;;;;;;;9.48;3.75;;;;;;;11.14;95.94;101021.94;5077920;28;20499;-74
2022/05/31 00:09:03;;;;;;;10.13;4.05;;;;;;;11.19;96.74;101020.78;5077027;28;20056;-75
2022/05/31 00:11:30;;;;;;;9.30;4.13;;;;;;;11.23;98.07;101014.06;5088146;28;20048;-76
2022/05/31 00:13:56;;;;;;;11.82;4.70;;;;;;;11.22;98.31;101015.25;5075033;28;20131;-74
2022/05/31 00:16:23;;;;;;;11.23;4.25;;;;;;;11.20;97.24;101014.06;5075018;28;20050;-73
2022/05/31 00:18:50;;;;;;;9.43;4.18;;;;;;;11.19;97.22;101009.69;5074543;28;20052;-75
2022/05/31 00:21:16;;;;;;;11.85;4.63;;;;;;;11.20;97.48;101006.53;5069132;28;20056;-76
2022/05/31 00:23:43;;;;;;;9.55;3.90;;;;;;;11.23;98.35;101010.50;5069217;28;20059;-77
2022/05/31 00:26:10;;;;;;;10.20;4.00;;;;;;;11.20;97.40;100997.44;5067097;28;20056;-73
2022/05/31 00:28:37;;;;;;;11.10;4.57;;;;;;;11.18;97.08;100999.81;5071024;28;20143;-77
2022/05/31 00:31:04;;;;;;;10.05;4.40;;;;;;;11.18;97.22;100999.81;5076542;28;20063;-78
2022/05/31 00:33:30;;;;;;;10.75;4.13;;;;;;;11.13;98.44;101001.00;5075961;28;20040;-74
2022/05/31 00:35:57;;;;;;;9.18;4.20;;;;;;;11.01;98.90;101003.34;5076872;28;20051;-74
2022/05/31 00:38:23;;;;;;;8.10;4.15;;;;;;;10.91;98.76;100998.59;5079388;28;20139;-76
2022/05/31 00:40:50;;;;;;;8.35;4.45;;;;;;;10.93;100.00;100996.22;5074426;28;20510;-74
2022/05/31 00:43:22;;;;;;;11.30;4.32;;;;;;;10.92;100.00;100994.63;5101054;28;20051;-74
2022/05/31 00:45:57;;;;;;;10.23;4.10;;;;;;;10.91;100.00;100993.84;5100003;28;20062;-77
2022/05/31 00:48:38;;;;;;;8.90;4.07;;;;;;;10.91;100.00;100996.63;5096134;28;20078;-74
2022/05/31 00:51:08;;;;;;;12.57;4.38;;;;;;;10.91;100.00;100993.84;5089264;28;20052;-74
2022/05/31 00:53:40;;;;;;;10.88;4.60;;;;;;;10.89;100.00;101003.72;5102703;28;20044;-74
2022/05/31 00:56:14;;;;;;;11.60;4.80;;;;;;;10.82;100.00;100998.16;5096997;28;20059;-77
2022/05/31 00:58:50;;;;;;;10.23;4.70;;;;;;;10.81;100.00;101007.66;5103291;28;20051;-74
2022/05/31 01:01:18;;;;;;;12.95;4.60;;;;;;;10.73;100.00;100989.47;5096185;28;20047;-76
2022/05/31 01:03:45;;;;;;;10.45;4.68;;;;;;;10.76;100.00;100994.22;5097843;28;20044;-74
2022/05/31 01:06:12;;;;;;;10.35;4.40;;;;;;;10.75;100.00;100992.59;5085135;28;20044;-74
2022/05/31 01:08:44;;;;;;;11.05;4.97;;;;;;;10.75;100.00;100998.16;5085718;28;20050;-74
2022/05/31 01:11:17;;;;;;;11.13;4.85;;;;;;;10.72;100.00;100996.97;5095812;28;20054;-75
2022/05/31 01:13:44;;;;;;;12.93;5.22;;;;;;;10.70;100.00;101002.09;5102666;28;20052;-74
2022/05/31 01:16:13;;;;;;;11.38;4.93;;;;;;;10.68;100.00;100987.06;5100519;28;20055;-75
2022/05/31 01:18:39;;;;;;;9.85;5.45;;;;;;;10.66;100.00;100995.75;5097299;28;20056;-75
2022/05/31 01:21:07;;;;;;;9.15;4.72;;;;;;;10.67;100.00;100996.56;5102361;28;20155;-76
2022/05/31 01:23:59;;;;;;;13.32;5.88;;;;;;;10.61;100.00;100995.34;5100457;28;20075;-74
2022/05/31 01:26:51;;;;;;;11.27;5.10;;;;;;;10.62;100.00;100999.69;5100463;28;20065;-74
2022/05/31 01:29:33;;;;;;;14.20;6.13;;;;;;;10.62;100.00;100997.72;5096819;28;20047;-74
2022/05/31 01:32:03;;;;;;;14.82;6.20;;;;;;;10.57;100.00;100997.31;5096584;28;20143;-74
2022/05/31 01:34:55;;;;;;;15.75;5.97;;;;;;;10.56;100.00;101001.28;5073555;28;21082;-74
2022/05/31 01:37:32;;;;;;;12.32;5.20;;;;;;;10.55;100.00;100989.41;5081764;28;20143;-75
2022/05/31 01:40:06;;;;;;;13.30;5.53;;;;;;;10.57;100.00;100997.31;5084840;28;20050;-76
2022/05/31 01:42:35;;;;;;;13.20;5.93;;;;;;;10.54;100.00;100996.91;5091018;28;20054;-75
2022/05/31 01:45:21;;;;;;;13.80;5.63;;;;;;;10.52;100.00;100992.94;5101695;28;20139;-75
2022/05/31 01:47:49;;;;;;;15.10;5.80;;;;;;;10.57;100.00;100991.78;5075332;28;20076;-74
2022/05/31 01:50:19;;;;;;;12.18;5.38;;;;;;;10.58;100.00;100991.38;5082190;28;20050;-75
2022/05/31 01:52:48;;;;;;;17.50;6.60;;;;;;;10.57;100.00;100986.25;5073090;28;20056;-75
2022/05/31 01:55:15;;;;;;;14.23;6.20;;;;;;;10.54;100.00;100987.81;5073916;28;20048;-74
2022/05/31 01:57:47;;;;;;;14.80;6.28;;;;;;;10.52;100.00;100990.19;5082663;28;20050;-75
2022/05/31 02:00:16;;;;;;;13.02;5.60;;;;;;;10.49;100.00;100977.91;5084288;28;20811;-75
2022/05/31 02:02:47;;;;;;;18.92;6.82;;;;;;;10.50;100.00;100984.25;5070997;28;20127;-73
2022/05/31 02:05:15;;;;;;;17.20;6.75;;;;;;;10.48;100.00;100987.41;5073608;28;20047;-73
2022/05/31 02:07:42;;;;;;;15.93;6.88;;;;;;;10.43;100.00;100990.53;5081296;28;20134;-73
2022/05/31 02:10:08;;;;;;;14.38;6.60;;;;;;;10.40;100.00;100977.47;5078602;28;20505;-73
2022/05/31 02:12:36;;;;;;;13.95;6.38;;;;;;;10.39;100.00;100980.63;5077805;28;20159;-73
2022/05/31 02:15:03;;;;;;;13.85;5.93;;;;;;;10.35;100.00;100980.63;5071898;28;20140;-73
2022/05/31 02:17:29;;;;;;;14.00;5.90;;;;;;;10.33;100.00;100977.47;5069956;28;20055;-72
2022/05/31 02:19:56;;;;;;;16.73;6.03;;;;;;;10.31;100.00;100974.31;5073411;28;20044;-73
2022/05/31 02:22:26;;;;;;;17.48;5.95;;;;;;;10.29;100.00;100971.13;5084305;28;20059;-73
2022/05/31 02:24:52;;;;;;;11.43;5.65;;;;;;;10.29;100.00;100979.44;5083298;28;20048;-74
2022/05/31 02:27:18;;;;;;;16.15;5.80;;;;;;;10.27;100.00;100973.47;5078167;28;20428;-73
2022/05/31 02:29:45;;;;;;;16.70;7.07;;;;;;;10.22;100.00;100971.09;5070241;28;20052;-73
2022/05/31 02:32:14;;;;;;;11.93;5.80;;;;;;;10.20;100.00;100976.22;5072455;28;20164;-73
2022/05/31 02:34:47;;;;;;;16.17;6.75;;;;;;;10.19;100.00;100980.16;5072812;28;20432;-73
2022/05/31 02:37:14;;;;;;;10.40;5.80;;;;;;;10.17;100.00;100977.00;5083526;28;20130;-73
2022/05/31 02:39:41;;;;;;;12.48;6.25;;;;;;;10.16;100.00;100975.41;5079551;28;20048;-73
2022/05/31 02:42:08;;;;;;;14.93;6.78;;;;;;;10.15;100.00;100975.78;5073706;28;20056;-73
2022/05/31 02:44:35;;;;;;;16.92;6.47;;;;;;;10.10;100.00;100968.66;5079598;28;20054;-75
2022/05/31 02:47:03;;;;;;;12.80;6.25;;;;;;;10.12;100.00;100971.03;5073967;28;20116;-74
2022/05/31 02:49:29;;;;;;;16.10;6.18;;;;;;;10.10;100.00;100963.13;5069915;28;20044;-73
2022/05/31 02:51:58;;;;;;;12.45;6.03;;;;;;;10.12;100.00;100969.06;5079557;28;20848;-73
2022/05/31 02:54:26;;;;;;;14.02;6.20;;;;;;;10.09;100.00;100958.00;5086920;28;20047;-74
2022/05/31 02:56:52;;;;;;;12.85;6.43;;;;;;;10.09;100.00;100950.50;5079459;28;20140;-73
2022/05/31 02:59:19;;;;;;;12.15;6.20;;;;;;;10.10;100.00;100954.84;5080265;28;20135;-75
2022/05/31 03:01:47;;;;;;;15.05;6.88;;;;;;;10.11;100.00;100959.22;5077826;28;20482;-73
2022/05/31 03:04:14;;;;;;;16.85;7.55;;;;;;;10.12;100.00;100952.50;5078370;28;20043;-74
2022/05/31 03:06:40;;;;;;;17.83;8.13;;;;;;;10.14;100.00;100949.34;5085768;28;20082;-73
2022/05/31 03:09:07;;;;;;;16.08;7.55;;;;;;;10.18;100.00;100948.19;5078836;28;20054;-73
2022/05/31 03:12:01;;;;;;;17.25;7.78;;;;;;;10.24;100.00;100952.16;5077712;28;20132;-75
2022/05/31 03:14:49;;;;;;;18.63;7.68;;;;;;;10.30;100.00;100953.34;5075250;28;20051;-73
2022/05/31 03:17:31;;;;;;;15.70;7.75;;;;;;;10.39;100.00;100950.22;5080071;28;20040;-73
2022/05/31 03:20:07;;;;;;;15.95;7.40;;;;;;;10.43;100.00;100949.03;5078226;28;20527;-74
2022/05/31 03:22:39;;;;;;;20.85;7.97;;;;;;;10.47;100.00;100949.06;5083893;28;20485;-73
2022/05/31 03:25:23;;;;;;;14.77;7.10;;;;;;;10.49;100.00;100944.72;5074153;28;20131;-75
2022/05/31 03:27:52;;;;;;;15.35;7.03;;;;;;;10.49;100.00;100941.97;5072544;28;20048;-73
2022/05/31 03:30:19;;;;;;;14.57;7.40;;;;;;;10.47;100.00;100947.06;5076698;28;20424;-73
2022/05/31 03:32:46;;;;;;;19.58;7.90;;;;;;;10.49;100.00;100955.00;5080059;28;20511;-73
2022/05/31 03:35:12;;;;;;;17.48;8.43;;;;;;;10.51;100.00;100944.34;5078624;28;20055;-73
2022/05/31 03:37:40;;;;;;;16.92;7.80;;;;;;;10.56;100.00;100951.47;5080694;28;20139;-74
2022/05/31 03:40:08;;;;;;;17.52;7.20;;;;;;;10.60;100.00;100952.25;5077110;28;20056;-74
2022/05/31 03:42:37;;;;;;;18.77;7.53;;;;;;;10.63;100.00;100957.00;5067330;28;20091;-74
2022/05/31 03:45:04;;;;;;;14.52;6.88;;;;;;;10.65;100.00;100949.91;5080238;28;20132;-74
2022/05/31 03:47:31;;;;;;;16.08;7.90;;;;;;;10.65;100.00;100947.13;5077069;28;20044;-73
2022/05/31 03:49:57;;;;;;;23.00;7.05;;;;;;;10.66;100.00;100945.16;5085484;28;20167;-73
2022/05/31 03:52:24;;;;;;;15.43;8.30;;;;;;;10.67;100.00;100944.78;5067797;28;20052;-74
2022/05/31 03:54:50;;;;;;;16.05;7.88;;;;;;;10.69;100.00;100955.47;5084168;28;20127;-75
2022/05/31 03:57:20;;;;;;;14.60;7.07;;;;;;;10.71;100.00;100950.31;5083162;28;20058;-75
2022/05/31 03:59:47;;;;;;;21.58;8.45;;;;;;;10.70;100.00;100954.25;5081459;28;20147;-73
2022/05/31 04:02:13;;;;;;;13.60;6.75;;;;;;;10.73;100.00;100948.72;5083164;28;20063;-74
2022/05/31 04:04:40;;;;;;;18.90;7.57;;;;;;;10.74;100.00;100964.16;5082220;28;20385;-74
2022/05/31 04:07:06;;;;;;;21.30;7.78;;;;;;;10.77;100.00;100952.31;5080023;28;20144;-73
2022/05/31 04:09:33;;;;;;;18.35;7.65;;;;;;;10.81;100.00;100942.03;5080139;28;20059;-75
2022/05/31 04:12:00;;;;;;;16.17;7.00;;;;;;;10.85;100.00;100950.31;5080288;28;20048;-73
2022/05/31 04:14:26;;;;;;;17.52;6.97;;;;;;;10.87;100.00;100945.19;5079107;28;20064;-73
2022/05/31 04:16:53;;;;;;;16.92;7.85;;;;;;;10.88;100.00;100947.56;5081547;28;20048;-76
2022/05/31 04:19:20;;;;;;;20.35;8.30;;;;;;;10.91;100.00;100952.31;5074232;28;20097;-73
2022/05/31 04:21:46;;;;;;;22.10;7.60;;;;;;;10.95;100.00;100950.34;5078026;28;20047;-74
2022/05/31 04:24:13;;;;;;;15.27;7.10;;;;;;;10.93;100.00;100938.88;5074330;28;20566;-72
2022/05/31 04:26:46;;;;;;;17.38;7.32;;;;;;;11.01;100.00;100950.75;5067986;28;20127;-74
2022/05/31 04:29:12;;;;;;;17.42;7.65;;;;;;;11.03;100.00;100943.63;5080292;28;20135;-73
2022/05/31 04:31:39;;;;;;;16.58;8.05;;;;;;;11.07;100.00;100941.63;5074752;28;20124;-74
2022/05/31 04:34:05;;;;;;;16.02;8.20;;;;;;;11.11;100.00;100947.19;5073002;28;20400;-75
2022/05/31 04:36:32;;;;;;;18.10;8.15;;;;;;;11.10;100.00;100940.06;5081594;28;20048;-73
2022/05/31 04:39:00;;;;;;;17.25;7.45;;;;;;;11.15;100.00;100951.56;5077345;28;20080;-73
2022/05/31 04:41:28;;;;;;;19.98;8.40;;;;;;;11.14;100.00;100940.88;5079279;28;20052;-73
2022/05/31 04:43:57;;;;;;;18.13;8.02;;;;;;;11.15;100.00;100940.47;5070933;28;20056;-73
2022/05/31 04:46:27;;;;;;;22.25;8.35;;;;;;;11.20;100.00;100944.84;5066277;28;20164;-75
2022/05/31 04:48:56;;;;;;;20.08;8.35;;;;;;;11.24;100.00;100943.63;5078925;28;20811;-75
2022/05/31 04:51:23;;;;;;;24.38;9.85;;;;;;;11.25;100.00;100944.41;5072781;28;20059;-73
2022/05/31 04:53:50;;;;;;;19.98;8.65;;;;;;;11.25;100.00;100930.56;5068422;28;20433;-73
2022/05/31 04:56:19;;;;;;;21.73;9.30;;;;;;;11.25;100.00;100936.09;5083191;28;20495;-76
2022/05/31 04:58:48;;;;;;;20.55;8.52;;;;;;;11.30;100.00;100938.50;5079728;28;20121;-74
2022/05/31 05:01:16;;;;;;;19.10;8.30;;;;;;;11.33;100.00;100940.44;5068607;28;20124;-75
2022/05/31 05:03:44;;;;;;;17.55;8.90;;;;;;;11.31;100.00;100935.31;5078490;28;20048;-74
2022/05/31 05:06:13;;;;;;;20.25;9.88;;;;;;;11.37;100.00;100935.72;5084466;28;20040;-76
2022/05/31 05:08:40;;;;;;;20.40;8.82;;;;;;;11.44;100.00;100939.25;5080051;28;20052;-73
2022/05/31 05:11:09;;;;;;;19.70;8.77;;;;;;;11.47;100.00;100940.47;5087687;28;20051;-74
2022/05/31 05:13:37;;;;;;;20.75;9.60;;;;;;;11.50;100.00;100940.44;5081380;28;20044;-75
2022/05/31 05:16:06;;;;;;;20.75;7.75;;;;;;;11.54;100.00;100941.22;5070719;28;20051;-76
2022/05/31 05:18:34;;;;;;;19.63;8.18;;;;;;;11.59;100.00;100948.34;5080989;28;20441;-79
2022/05/31 05:21:03;;;;;;;21.10;8.52;;;;;;;11.61;100.00;100940.44;5074164;28;20059;-75
2022/05/31 05:23:30;;;;;;;17.52;8.30;;;;;;;11.62;100.00;100942.03;5080161;28;20091;-77
2022/05/31 05:25:58;;;;;;;21.10;8.93;;;;;;;11.64;100.00;100942.44;5070862;28;20643;-77
2022/05/31 05:31:30;;;;;;;20.92;7.90;;;;;;;11.71;100.00;100951.50;5076169;28;20084;-74
2022/05/31 05:34:00;;;;;;;22.77;9.18;;;;;;;11.74;100.00;100955.50;5086133;28;20055;-74
2022/05/31 05:36:27;;;;;;;24.75;8.73;;;;;;;11.75;100.00;100954.28;5078470;28;20052;-75
2022/05/31 05:38:54;;;;;;;17.35;7.50;;;;;;;11.74;100.00;100961.03;5083549;28;20060;-74
2022/05/31 05:41:22;;;;;;;19.77;7.25;;;;;;;11.71;100.00;100959.06;5076738;28;20519;-74
2022/05/31 05:43:48;;;;;;;18.67;7.80;;;;;;;11.73;100.00;100953.88;5074831;28;20139;-75
2022/05/31 05:46:26;;;;;;;14.30;6.57;;;;;;;11.76;100.00;100955.88;5087827;28;20515;-74
2022/05/31 05:48:54;;;;;;;16.75;7.32;;;;;;;11.79;100.00;100964.19;5085290;28;20055;-74
2022/05/31 05:51:26;;;;;;;14.88;7.18;;;;;;;11.80;100.00;100960.22;5071170;28;20041;-73
2022/05/31 05:53:52;;;;;;;17.25;7.03;;;;;;;11.82;100.00;100945.97;5073109;28;20075;-74
2022/05/31 05:56:20;;;;;;;19.13;7.50;;;;;;;11.82;100.00;100945.97;5085654;28;20870;-74
2022/05/31 05:58:48;;;;;;;15.70;7.20;;;;;;;11.87;100.00;100948.31;5088088;28;20508;-74
2022/05/31 06:01:20;;;;;;;17.40;7.50;;;;;;;11.89;100.00;100940.41;5080552;28;20083;-76
2022/05/31 06:03:56;;;;;;;17.02;7.63;;;;;;;11.90;100.00;100941.97;5086105;28;20044;-74
2022/05/31 06:06:24;;;;;;;16.58;6.38;;;;;;;11.94;100.00;100939.97;5078862;28;20196;-77
2022/05/31 06:09:04;;;;;;;16.48;7.45;;;;;;;12.02;100.00;100952.63;5080453;28;20071;-75
2022/05/31 06:11:50;;;;;;;17.15;7.50;;;;;;;12.09;100.00;100947.84;5082699;28;20135;-76
2022/05/31 06:14:18;;;;;;;16.25;7.18;;;;;;;12.15;100.00;100951.78;5073799;28;20058;-77
2022/05/31 06:16:50;;;;;;;15.05;7.55;;;;;;;12.23;100.00;100949.78;5081984;28;20060;-77
2022/05/31 06:19:21;;;;;;;18.05;7.63;;;;;;;12.25;100.00;100952.97;5086937;28;20085;-76
2022/05/31 06:21:50;;;;;;;19.77;8.40;;;;;;;12.30;100.00;100958.06;5071795;28;20138;-76
2022/05/31 06:24:19;;;;;;;16.20;6.40;;;;;;;12.35;100.00;100957.63;5087885;28;20052;-77
2022/05/31 06:26:46;;;;;;;17.25;7.10;;;;;;;12.41;100.00;100959.59;5073327;28;20036;-76
2022/05/31 06:29:12;;;;;;;15.48;7.38;;;;;;;12.48;100.00;100961.53;5082110;28;20055;-75
2022/05/31 06:31:39;;;;;;;23.02;8.57;;;;;;;12.52;100.00;100956.78;5077993;28;20131;-76
2022/05/31 06:34:05;;;;;;;16.98;7.15;;;;;;;12.62;100.00;100953.94;5083861;28;20048;-75
2022/05/31 06:36:32;;;;;;;18.35;7.82;;;;;;;12.72;100.00;100957.84;5081336;28;20876;-75
2022/05/31 06:38:58;;;;;;;16.88;7.38;;;;;;;12.77;100.00;100952.69;5082677;28;20136;-75
2022/05/31 06:41:25;;;;;;;19.45;7.28;;;;;;;12.81;100.00;100949.84;5084324;28;20047;-77
2022/05/31 06:43:52;;;;;;;14.85;7.13;;;;;;;12.82;100.00;100960.56;5081382;28;20068;-75
2022/05/31 06:46:19;;;;;;;20.67;7.40;;;;;;;12.82;100.00;100952.22;5088411;28;20494;-76
2022/05/31 06:48:47;;;;;;;16.65;7.45;;;;;;;12.79;100.00;100955.81;5083942;28;20163;-75
2022/05/31 06:56:48;;;;;;;16.60;7.45;;;;;;;12.86;100.00;100949.44;5081371;28;20634;-77
2022/05/31 06:57:01;;;;;;;16.67;6.95;;;;;;;12.88;100.00;100955.38;5010317;28;20145;-76
2022/05/31 06:59:27;;;;;;;19.58;7.13;;;;;;;12.85;100.00;100965.31;5100322;28;20048;-75
2022/05/31 07:02:03;;;;;;;17.83;7.03;;;;;;;12.85;100.00;100961.72;5077464;28;20052;-75
2022/05/31 07:04:37;;;;;;;16.15;6.97;;;;;;;12.88;100.00;100961.72;5082303;28;20055;-77
2022/05/31 07:07:05;;;;;;;15.27;6.63;;;;;;;12.91;100.00;100957.34;5084431;28;20127;-76
2022/05/31 07:09:34;;;;;;;20.45;7.78;;;;;;;12.92;100.00;100956.13;5074406;28;20431;-72
2022/05/31 07:12:01;;;;;;;14.85;7.60;;;;;;;12.89;100.00;100960.50;5076162;28;20047;-73
2022/05/31 07:14:28;;;;;;;17.58;7.88;;;;;;;12.93;100.00;100977.94;5084041;28;20134;-73
2022/05/31 07:16:54;;;;;;;17.77;7.15;;;;;;;12.91;100.00;100974.78;5072353;28;20041;-73
2022/05/31 07:19:21;;;;;;;16.40;6.43;;;;;;;12.88;100.00;100974.81;5083598;28;20128;-73
2022/05/31 07:21:47;;;;;;;18.27;7.53;;;;;;;12.92;100.00;100986.69;5074525;28;20063;-73
2022/05/31 07:24:14;;;;;;;16.63;7.75;;;;;;;12.88;100.00;100985.91;5073959;28;20135;-74
2022/05/31 07:26:48;;;;;;;16.58;7.20;;;;;;;12.90;100.00;100989.09;5086871;28;20122;-73
2022/05/31 07:29:14;;;;;;;16.25;7.03;;;;;;;12.91;100.00;100977.56;5084457;28;20059;-73
2022/05/31 07:31:44;;;;;;;15.50;7.05;;;;;;;12.94;100.00;100979.53;5078021;28;20047;-74
2022/05/31 07:34:31;;;;;;;18.60;7.15;;;;;;;12.98;100.00;100971.16;5079473;28;20048;-73
2022/05/31 07:36:57;;;;;;;19.77;7.03;;;;;;;12.98;100.00;100972.00;5086289;28;20054;-73
2022/05/31 07:39:24;;;;;;;14.90;6.97;;;;;;;13.02;100.00;100975.53;5085649;28;20060;-73
2022/05/31 07:41:54;;;;;;;14.68;7.28;;;;;;;13.00;100.00;100969.59;5075285;28;20106;-74
2022/05/31 07:44:21;;;;;;;15.30;6.53;;;;;;;13.03;100.00;100971.56;5070702;28;20075;-73
2022/05/31 07:46:48;;;;;;;18.23;7.13;;;;;;;13.02;100.00;100975.53;5082592;28;20040;-73
2022/05/31 07:49:15;;;;;;;13.52;6.38;;;;;;;13.03;100.00;100968.00;5075009;28;20046;-69
2022/05/31 07:51:42;;;;;;;18.20;7.95;;;;;;;13.04;100.00;100961.25;5081820;28;20481;-73
2022/05/31 07:54:08;;;;;;;15.18;7.63;;;;;;;13.06;100.00;100963.63;5080540;28;20555;-72
2022/05/31 07:56:35;;;;;;;19.30;8.13;;;;;;;13.04;100.00;100959.25;5083618;28;20044;-73
2022/05/31 07:59:01;;;;;;;16.70;6.63;;;;;;;13.06;100.00;100967.16;5072266;28;20135;-76
2022/05/31 08:01:28;;;;;;;18.98;7.35;;;;;;;13.02;100.00;100974.75;5076658;28;20056;-73
2022/05/31 08:03:55;;;;;;;17.20;7.95;;;;;;;12.93;100.00;100986.28;5078111;28;20044;-73
2022/05/31 08:06:28;;;;;;;16.40;7.55;;;;;;;12.90;100.00;100989.09;5085863;28;20354;-75
2022/05/31 08:08:57;;;;;;;16.20;7.70;;;;;;;12.93;100.00;100988.28;5096009;28;20464;-73
2022/05/31 08:11:30;;;;;;;17.92;8.50;;;;;;;12.95;100.00;100977.53;5075009;28;20036;-75
2022/05/31 08:13:57;;;;;;;15.40;8.48;;;;;;;12.98;100.00;100974.78;5078889;28;20043;-74
2022/05/31 08:16:26;;;;;;;20.83;8.02;;;;;;;12.96;100.00;100970.78;5076741;28;20577;-75
2022/05/31 08:18:55;;;;;;;18.17;8.07;;;;;;;12.96;100.00;100970.78;5078147;28;20056;-75
2022/05/31 08:21:28;;;;;;;16.85;7.50;;;;;;;13.00;100.00;100972.38;5071440;28;20076;-72
2022/05/31 08:23:56;;;;;;;16.58;8.32;;;;;;;13.02;100.00;100976.75;5085492;28;20492;-73
2022/05/31 08:26:24;;;;;;;20.98;8.25;;;;;;;13.03;100.00;100970.78;5071146;28;20072;-73
2022/05/31 08:28:51;;;;;;;18.75;8.73;;;;;;;13.10;100.00;100970.72;5072422;28;20091;-73
2022/05/31 08:31:24;;;;;;;17.60;8.43;;;;;;;13.06;100.00;100961.59;5075909;28;20062;-73
2022/05/31 08:33:51;;;;;;;21.85;7.88;;;;;;;13.07;100.00;100968.75;5082049;28;20056;-74
2022/05/31 08:36:18;;;;;;;21.52;9.38;;;;;;;13.11;100.00;100965.94;5076355;28;20050;-73
2022/05/31 08:38:45;;;;;;;24.33;10.77;;;;;;;13.13;100.00;100958.78;5080452;28;20126;-73
2022/05/31 08:41:11;;;;;;;18.38;9.25;;;;;;;13.17;100.00;100956.78;5080939;28;20048;-73
2022/05/31 08:43:47;;;;;;;22.33;10.00;;;;;;;13.21;100.00;100946.44;5073397;28;20052;-73
2022/05/31 08:46:28;;;;;;;18.08;8.25;;;;;;;13.32;100.00;100932.44;5088473;28;20036;-74
2022/05/31 08:48:57;;;;;;;19.48;8.05;;;;;;;13.40;100.00;100929.16;5075829;28;20866;-74
2022/05/31 08:52:27;;;;;;;16.92;7.93;;;;;;;13.45;100.00;100916.81;5080334;28;20597;-74
2022/05/31 08:57:45;;;;;;;20.67;8.23;;;;;;;13.79;100.00;100915.69;5067030;28;20047;-74
2022/05/31 09:00:26;;;;;;;17.83;8.27;;;;;;;13.89;100.00;100912.00;5082188;28;20159;-73
2022/05/31 09:03:07;;;;;;;19.10;8.48;;;;;;;14.03;100.00;100914.59;5084872;28;20130;-75
2022/05/31 09:05:45;;;;;;;24.58;9.00;;;;;;;14.21;100.00;100917.94;5082355;28;20105;-77
2022/05/31 09:08:24;;;;;;;18.58;9.15;;;;;;;14.45;100.00;100916.84;5083541;28;20067;-75
2022/05/31 09:11:01;;;;;;;21.42;9.60;;;;;;;14.69;100.00;100909.38;5085385;28;20055;-73
2022/05/31 09:13:31;;;;;;;18.52;7.85;;;;;;;14.93;100.00;100908.19;5077723;28;20078;-73
2022/05/31 09:16:33;;;;;;;18.95;8.45;;;;;;;15.19;100.00;100902.56;5088630;28;20134;-76
2022/05/31 09:19:05;;;;;;;21.60;7.18;;;;;;;15.48;100.00;100903.69;5068223;28;20066;-70
2022/05/31 09:21:37;;;;;;;20.38;7.57;;;;;;;15.61;100.00;100905.84;5080669;28;20124;-68
2022/05/31 09:24:06;;;;;;;19.05;8.50;;;;;;;15.77;100.00;100912.34;5088720;28;22452;-76
2022/05/31 09:26:40;;;;;;;17.73;8.15;;;;;;;15.83;100.00;100912.63;5083406;28;20146;-76
2022/05/31 09:29:17;;;;;;;19.45;9.82;;;;;;;15.91;100.00;100905.66;5073688;28;20591;-74
2022/05/31 09:31:43;;;;;;;21.13;7.65;;;;;;;16.07;100.00;100914.13;5077085;28;20421;-74
2022/05/31 09:34:31;;;;;;;13.50;7.20;;;;;;;16.26;100.00;100916.13;5081506;28;20172;-77
2022/05/31 09:37:45;;;;;;;16.10;8.10;;;;;;;16.38;100.00;100921.84;5076956;28;20056;-77
2022/05/31 09:40:28;;;;;;;17.02;7.47;;;;;;;16.42;100.00;100914.19;5063222;28;20048;-77
2022/05/31 09:43:00;;;;;;;17.35;6.95;;;;;;;16.49;98.91;100916.84;5081367;28;20472;-76
2022/05/31 09:45:32;;;;;;;18.25;7.63;;;;;;;16.50;98.06;100914.84;5087891;28;20524;-78
2022/05/31 09:48:00;;;;;;;18.25;7.05;;;;;;;16.52;96.95;100912.38;5083735;28;20751;-77
2022/05/31 09:50:29;;;;;;;16.13;7.57;;;;;;;16.46;95.08;100916.91;5068379;28;20131;-76
2022/05/31 09:52:58;;;;;;;14.95;6.70;;;;;;;16.47;97.28;100910.88;5071020;28;20139;-75
2022/05/31 09:58:24;;;;;;;16.53;6.37;;;;;;;16.61;93.27;100926.56;5076639;28;20126;-75
2022/05/31 10:01:15;;;;;;;15.30;6.15;;;;;;;16.77;92.39;100921.00;5075998;28;20170;-73
2022/05/31 10:03:48;;;;;;;13.60;5.65;;;;;;;17.09;93.72;100924.63;5080053;28;20519;-73
2022/05/31 10:06:20;;;;;;;16.30;7.40;;;;;;;17.44;91.15;100922.94;5073077;28;20059;-76
2022/05/31 10:08:49;;;;;;;17.13;6.60;;;;;;;17.78;87.58;100914.84;5074588;28;20048;-76
2022/05/31 10:11:24;;;;;;;17.67;6.97;;;;;;;17.94;82.85;100914.78;5078190;28;20055;-78
2022/05/31 10:13:58;;;;;;;16.52;6.82;;;;;;;18.15;80.61;100916.22;5076537;28;20147;-75
2022/05/31 10:16:28;;;;;;;16.98;7.93;;;;;;;18.22;80.24;100910.41;5074056;28;20056;-73
2022/05/31 10:18:57;;;;;;;19.80;7.97;;;;;;;18.46;80.74;100909.69;5077679;28;20056;-73
2022/05/31 10:21:32;;;;;;;15.98;6.85;;;;;;;18.73;78.57;100904.44;5074578;28;20515;-73
2022/05/31 10:24:08;;;;;;;16.92;7.70;;;;;;;18.88;75.26;100902.75;5078101;28;20131;-73
2022/05/31 10:26:40;;;;;;;13.07;6.13;;;;;;;18.98;69.95;100896.03;5074676;28;20055;-73
2022/05/31 10:29:16;;;;;;;15.68;6.47;;;;;;;19.02;69.70;100893.88;5077856;28;20075;-73
2022/05/31 10:31:44;;;;;;;;;;;;;;;19.01;66.16;100886.72;5074502;28;20053;-72
2022/05/31 10:34:25;;;;;;;15.13;6.55;;;;;;;18.91;66.64;100895.47;5075372;28;19924;-73
2022/05/31 10:36:56;;;;;;;15.50;7.20;;;;;;;18.88;68.58;100890.75;5071189;28;20059;-75
2022/05/31 10:39:26;;;;;;;13.48;6.10;;;;;;;18.88;67.73;100888.75;5071239;28;20144;-73
2022/05/31 10:41:54;;;;;;;16.15;7.13;;;;;;;18.80;65.47;100895.03;5069177;28;20131;-74
2022/05/31 10:44:31;;;;;;;16.38;6.78;;;;;;;18.78;65.77;100889.06;5080707;28;20685;-77
2022/05/31 10:47:10;;;;;;;13.75;6.38;;;;;;;18.81;65.70;100886.19;5086057;28;20591;-74
2022/05/31 10:49:38;;;;;;;14.48;5.70;;;;;;;18.88;66.08;100882.34;5073100;28;20068;-76
2022/05/31 10:52:26;;;;;;;16.38;6.22;;;;;;;18.99;65.07;100882.78;5080621;28;20131;-74
2022/05/31 10:55:11;;;;;;;11.30;5.25;;;;;;;19.13;64.08;100882.34;5088435;28;20060;-76
2022/05/31 10:57:40;;;;;;;13.70;6.05;;;;;;;19.32;64.18;100878.50;5085441;28;20050;-73
2022/05/31 11:00:20;;;;;;;15.25;6.60;;;;;;;19.37;63.53;100881.50;5077499;28;20064;-73
2022/05/31 11:02:57;;;;;;;15.98;7.10;;;;;;;19.38;60.38;100882.28;5072940;28;20052;-75
2022/05/31 11:05:52;;;;;;;11.00;5.50;;;;;;;19.54;60.04;100880.09;5081761;28;20060;-73
2022/05/31 11:11:33;;;;;;;12.27;5.50;;;;;;;19.82;55.21;100867.88;5070203;28;20073;-75
2022/05/31 11:14:07;;;;;;;14.05;6.57;;;;;;;20.02;57.73;100871.09;5069351;28;20139;-67
2022/05/31 11:16:52;;;;;;;12.43;5.47;;;;;;;20.11;55.48;100879.63;5069205;28;20040;-73
2022/05/31 11:19:41;;;;;;;13.63;6.28;;;;;;;20.25;55.51;100869.91;5069389;28;20052;-71
2022/05/31 11:22:27;;;;;;;15.30;5.93;;;;;;;20.52;53.42;100872.06;5070837;28;20048;-72
2022/05/31 11:25:28;;;;;;;11.85;5.40;;;;;;;20.63;51.62;100872.41;5070628;28;20724;-73
2022/05/31 11:28:17;;;;;;;14.75;5.80;;;;;;;20.96;52.58;100870.69;5069728;28;20060;-73
2022/05/31 11:30:55;;;;;;;13.57;5.55;;;;;;;21.33;51.76;100869.53;5069936;28;20121;-75
2022/05/31 11:34:13;;;;;;;13.63;4.90;;;;;;;21.56;48.38;100861.25;5078432;28;20434;-75
2022/05/31 11:36:58;;;;;;;14.32;5.50;;;;;;;21.87;48.98;100850.63;5043311;28;20167;-74
2022/05/31 11:39:37;;;;;;;7.82;3.83;;;;;;;21.54;42.66;100871.41;5076807;28;20051;-74
2022/05/31 11:42:39;;;;;;;12.40;5.15;;;;;;;21.61;46.02;100862.66;5077672;28;20689;-75
2022/05/31 11:45:24;;;;;;;10.60;4.88;;;;;;;21.88;48.20;100860.66;5086737;28;20078;-74
2022/05/31 11:47:57;;;;;;;13.50;5.00;;;;;;;21.68;43.93;100873.59;5078211;28;20056;-77